sensor_id;sensor_type;location;lat;lon;timestamp;P1;durP1;ratioP1;P2;durP2;ratioP2
66327;SDS011;53133;52.862;6.602;2023-05-27T00:00:05;13.60;;;4.53;;
66327;SDS011;53133;52.862;6.602;2023-05-27T00:02:32;13.35;;;5.32;;
66327;SDS011;53133;52.862;6.602;2023-05-27T00:05:01;13.43;;;4.88;;
66327;SDS011;53133;52.862;6.602;2023-05-27T00:07:28;10.95;;;4.75;;
66327;SDS011;53133;52.862;6.602;2023-05-27T00:09:54;15.38;;;5.00;;
66327;SDS011;53133;52.862;6.602;2023-05-27T00:12:19;14.05;;;4.82;;
66327;SDS011;53133;52.862;6.602;2023-05-27T00:14:48;12.20;;;4.60;;
66327;SDS011;53133;52.862;6.602;2023-05-27T00:17:13;11.60;;;4.80;;
66327;SDS011;53133;52.862;6.602;2023-05-27T00:19:40;16.15;;;4.78;;
66327;SDS011;53133;52.862;6.602;2023-05-27T00:22:07;13.23;;;4.43;;
66327;SDS011;53133;52.862;6.602;2023-05-27T00:24:35;10.43;;;5.10;;
66327;SDS011;53133;52.862;6.602;2023-05-27T00:27:04;13.85;;;4.90;;
66327;SDS011;53133;52.862;6.602;2023-05-27T00:29:30;14.45;;;5.15;;
66327;SDS011;53133;52.862;6.602;2023-05-27T00:31:56;12.77;;;4.53;;
66327;SDS011;53133;52.862;6.602;2023-05-27T00:34:22;9.82;;;4.80;;
66327;SDS011;53133;52.862;6.602;2023-05-27T00:36:47;14.30;;;4.75;;
66327;SDS011;53133;52.862;6.602;2023-05-27T00:39:13;15.30;;;4.88;;
66327;SDS011;53133;52.862;6.602;2023-05-27T00:41:39;13.73;;;5.00;;
66327;SDS011;53133;52.862;6.602;2023-05-27T00:44:11;11.27;;;4.63;;
66327;SDS011;53133;52.862;6.602;2023-05-27T00:46:36;13.68;;;4.75;;
66327;SDS011;53133;52.862;6.602;2023-05-27T00:49:02;11.57;;;4.47;;
66327;SDS011;53133;52.862;6.602;2023-05-27T00:51:28;14.85;;;4.60;;
66327;SDS011;53133;52.862;6.602;2023-05-27T00:53:53;7.63;;;4.00;;
66327;SDS011;53133;52.862;6.602;2023-05-27T00:56:20;9.15;;;4.00;;
66327;SDS011;53133;52.862;6.602;2023-05-27T00:58:46;11.48;;;4.25;;
66327;SDS011;53133;52.862;6.602;2023-05-27T01:01:18;10.82;;;4.65;;
66327;SDS011;53133;52.862;6.602;2023-05-27T01:03:44;12.57;;;4.43;;
66327;SDS011;53133;52.862;6.602;2023-05-27T01:14:32;12.27;;;4.28;;
66327;SDS011;53133;52.862;6.602;2023-05-27T01:17:00;9.02;;;4.22;;
66327;SDS011;53133;52.862;6.602;2023-05-27T01:19:30;9.60;;;3.90;;
66327;SDS011;53133;52.862;6.602;2023-05-27T01:21:59;10.32;;;4.15;;
66327;SDS011;53133;52.862;6.602;2023-05-27T01:24:26;6.50;;;3.60;;
66327;SDS011;53133;52.862;6.602;2023-05-27T01:26:52;9.90;;;4.28;;
66327;SDS011;53133;52.862;6.602;2023-05-27T01:29:20;10.65;;;4.35;;
66327;SDS011;53133;52.862;6.602;2023-05-27T01:34:40;9.73;;;3.97;;
66327;SDS011;53133;52.862;6.602;2023-05-27T01:37:12;11.23;;;4.90;;
66327;SDS011;53133;52.862;6.602;2023-05-27T01:39:40;11.43;;;4.60;;
66327;SDS011;53133;52.862;6.602;2023-05-27T01:42:06;14.25;;;4.57;;
66327;SDS011;53133;52.862;6.602;2023-05-27T01:44:33;13.75;;;4.55;;
66327;SDS011;53133;52.862;6.602;2023-05-27T01:47:00;9.85;;;4.82;;
66327;SDS011;53133;52.862;6.602;2023-05-27T01:49:27;9.32;;;4.28;;
66327;SDS011;53133;52.862;6.602;2023-05-27T01:51:53;12.65;;;5.22;;
66327;SDS011;53133;52.862;6.602;2023-05-27T01:54:19;11.15;;;4.93;;
66327;SDS011;53133;52.862;6.602;2023-05-27T01:56:45;14.80;;;5.18;;
66327;SDS011;53133;52.862;6.602;2023-05-27T01:59:10;11.13;;;4.80;;
66327;SDS011;53133;52.862;6.602;2023-05-27T02:01:36;12.00;;;5.00;;
66327;SDS011;53133;52.862;6.602;2023-05-27T02:04:01;14.48;;;5.30;;
66327;SDS011;53133;52.862;6.602;2023-05-27T02:06:28;10.68;;;5.18;;
66327;SDS011;53133;52.862;6.602;2023-05-27T02:08:54;14.35;;;5.55;;
66327;SDS011;53133;52.862;6.602;2023-05-27T02:11:20;14.70;;;5.10;;
66327;SDS011;53133;52.862;6.602;2023-05-27T02:13:46;10.07;;;5.50;;
66327;SDS011;53133;52.862;6.602;2023-05-27T02:16:11;11.25;;;5.32;;
66327;SDS011;53133;52.862;6.602;2023-05-27T02:18:37;13.90;;;5.97;;
66327;SDS011;53133;52.862;6.602;2023-05-27T02:21:03;9.80;;;5.03;;
66327;SDS011;53133;52.862;6.602;2023-05-27T02:23:31;9.98;;;4.65;;
66327;SDS011;53133;52.862;6.602;2023-05-27T02:25:57;16.23;;;5.78;;
66327;SDS011;53133;52.862;6.602;2023-05-27T02:28:23;13.20;;;5.80;;
66327;SDS011;53133;52.862;6.602;2023-05-27T02:30:55;16.83;;;5.72;;
66327;SDS011;53133;52.862;6.602;2023-05-27T02:33:21;9.68;;;5.28;;
66327;SDS011;53133;52.862;6.602;2023-05-27T02:35:47;11.75;;;5.22;;
66327;SDS011;53133;52.862;6.602;2023-05-27T02:38:12;12.98;;;5.57;;
66327;SDS011;53133;52.862;6.602;2023-05-27T02:40:38;10.30;;;5.03;;
66327;SDS011;53133;52.862;6.602;2023-05-27T02:43:04;11.50;;;4.97;;
66327;SDS011;53133;52.862;6.602;2023-05-27T02:45:33;13.00;;;5.18;;
66327;SDS011;53133;52.862;6.602;2023-05-27T02:47:59;8.27;;;5.13;;
66327;SDS011;53133;52.862;6.602;2023-05-27T02:50:26;8.63;;;5.25;;
66327;SDS011;53133;52.862;6.602;2023-05-27T02:52:52;11.50;;;5.28;;
66327;SDS011;53133;52.862;6.602;2023-05-27T02:55:17;14.73;;;5.07;;
66327;SDS011;53133;52.862;6.602;2023-05-27T02:57:43;10.35;;;5.03;;
66327;SDS011;53133;52.862;6.602;2023-05-27T03:00:09;11.73;;;4.95;;
66327;SDS011;53133;52.862;6.602;2023-05-27T03:02:36;12.60;;;5.38;;
66327;SDS011;53133;52.862;6.602;2023-05-27T03:05:02;12.57;;;5.40;;
66327;SDS011;53133;52.862;6.602;2023-05-27T03:07:28;11.23;;;4.90;;
66327;SDS011;53133;52.862;6.602;2023-05-27T03:09:57;12.82;;;6.03;;
66327;SDS011;53133;52.862;6.602;2023-05-27T03:12:23;14.88;;;5.75;;
66327;SDS011;53133;52.862;6.602;2023-05-27T03:14:51;12.95;;;5.82;;
66327;SDS011;53133;52.862;6.602;2023-05-27T03:17:18;14.57;;;5.93;;
66327;SDS011;53133;52.862;6.602;2023-05-27T03:19:44;13.20;;;5.78;;
66327;SDS011;53133;52.862;6.602;2023-05-27T03:22:10;13.63;;;5.38;;
66327;SDS011;53133;52.862;6.602;2023-05-27T03:24:36;14.57;;;5.45;;
66327;SDS011;53133;52.862;6.602;2023-05-27T03:27:01;14.60;;;6.00;;
66327;SDS011;53133;52.862;6.602;2023-05-27T03:29:28;11.13;;;5.85;;
66327;SDS011;53133;52.862;6.602;2023-05-27T03:31:55;21.33;;;6.88;;
66327;SDS011;53133;52.862;6.602;2023-05-27T03:34:21;17.23;;;6.22;;
66327;SDS011;53133;52.862;6.602;2023-05-27T03:36:47;14.68;;;6.18;;
66327;SDS011;53133;52.862;6.602;2023-05-27T03:39:15;19.83;;;6.45;;
66327;SDS011;53133;52.862;6.602;2023-05-27T03:41:41;15.02;;;5.93;;
66327;SDS011;53133;52.862;6.602;2023-05-27T03:44:07;14.65;;;6.10;;
66327;SDS011;53133;52.862;6.602;2023-05-27T03:46:33;14.95;;;5.85;;
66327;SDS011;53133;52.862;6.602;2023-05-27T03:48:59;19.20;;;6.60;;
66327;SDS011;53133;52.862;6.602;2023-05-27T03:51:28;12.23;;;5.93;;
66327;SDS011;53133;52.862;6.602;2023-05-27T03:53:53;13.65;;;6.10;;
66327;SDS011;53133;52.862;6.602;2023-05-27T03:56:19;16.38;;;6.50;;
66327;SDS011;53133;52.862;6.602;2023-05-27T03:58:45;14.45;;;6.97;;
66327;SDS011;53133;52.862;6.602;2023-05-27T04:01:10;19.83;;;6.60;;
66327;SDS011;53133;52.862;6.602;2023-05-27T04:03:36;16.20;;;6.97;;
66327;SDS011;53133;52.862;6.602;2023-05-27T04:06:04;14.38;;;6.10;;
66327;SDS011;53133;52.862;6.602;2023-05-27T04:08:30;21.10;;;6.35;;
66327;SDS011;53133;52.862;6.602;2023-05-27T04:10:56;16.50;;;6.35;;
66327;SDS011;53133;52.862;6.602;2023-05-27T04:13:22;20.35;;;6.53;;
66327;SDS011;53133;52.862;6.602;2023-05-27T04:15:48;16.05;;;6.28;;
66327;SDS011;53133;52.862;6.602;2023-05-27T04:18:13;17.05;;;6.65;;
66327;SDS011;53133;52.862;6.602;2023-05-27T04:20:40;18.25;;;6.50;;
66327;SDS011;53133;52.862;6.602;2023-05-27T04:23:08;14.98;;;6.18;;
66327;SDS011;53133;52.862;6.602;2023-05-27T04:25:34;16.73;;;6.68;;
66327;SDS011;53133;52.862;6.602;2023-05-27T04:28:00;19.35;;;6.63;;
66327;SDS011;53133;52.862;6.602;2023-05-27T04:30:30;19.15;;;6.70;;
66327;SDS011;53133;52.862;6.602;2023-05-27T04:32:56;21.52;;;6.78;;
66327;SDS011;53133;52.862;6.602;2023-05-27T04:35:23;22.83;;;6.50;;
66327;SDS011;53133;52.862;6.602;2023-05-27T04:37:49;17.40;;;6.50;;
66327;SDS011;53133;52.862;6.602;2023-05-27T04:40:17;24.55;;;6.72;;
66327;SDS011;53133;52.862;6.602;2023-05-27T04:42:44;18.42;;;6.88;;
66327;SDS011;53133;52.862;6.602;2023-05-27T04:45:10;18.67;;;6.68;;
66327;SDS011;53133;52.862;6.602;2023-05-27T04:47:36;21.92;;;7.18;;
66327;SDS011;53133;52.862;6.602;2023-05-27T04:50:05;18.05;;;6.95;;
66327;SDS011;53133;52.862;6.602;2023-05-27T04:52:35;19.67;;;6.57;;
66327;SDS011;53133;52.862;6.602;2023-05-27T04:55:07;22.77;;;6.97;;
66327;SDS011;53133;52.862;6.602;2023-05-27T04:57:34;23.08;;;6.65;;
66327;SDS011;53133;52.862;6.602;2023-05-27T05:00:02;19.75;;;6.55;;
66327;SDS011;53133;52.862;6.602;2023-05-27T05:02:31;18.13;;;7.45;;
66327;SDS011;53133;52.862;6.602;2023-05-27T05:05:04;19.27;;;6.40;;
66327;SDS011;53133;52.862;6.602;2023-05-27T05:07:31;20.77;;;7.22;;
66327;SDS011;53133;52.862;6.602;2023-05-27T05:09:58;20.45;;;6.63;;
66327;SDS011;53133;52.862;6.602;2023-05-27T05:12:24;23.80;;;6.70;;
66327;SDS011;53133;52.862;6.602;2023-05-27T05:14:50;18.90;;;6.35;;
66327;SDS011;53133;52.862;6.602;2023-05-27T05:17:17;19.33;;;6.90;;
66327;SDS011;53133;52.862;6.602;2023-05-27T05:19:43;23.58;;;6.47;;
66327;SDS011;53133;52.862;6.602;2023-05-27T05:22:09;18.42;;;6.22;;
66327;SDS011;53133;52.862;6.602;2023-05-27T05:24:37;23.75;;;6.18;;
66327;SDS011;53133;52.862;6.602;2023-05-27T05:27:03;22.42;;;6.80;;
66327;SDS011;53133;52.862;6.602;2023-05-27T05:29:30;20.45;;;7.10;;
66327;SDS011;53133;52.862;6.602;2023-05-27T05:31:56;15.77;;;6.28;;
66327;SDS011;53133;52.862;6.602;2023-05-27T05:34:21;19.10;;;6.10;;
66327;SDS011;53133;52.862;6.602;2023-05-27T05:36:47;19.38;;;6.50;;
66327;SDS011;53133;52.862;6.602;2023-05-27T05:39:13;21.48;;;6.70;;
66327;SDS011;53133;52.862;6.602;2023-05-27T05:41:38;22.52;;;6.90;;
66327;SDS011;53133;52.862;6.602;2023-05-27T05:44:04;22.75;;;7.05;;
66327;SDS011;53133;52.862;6.602;2023-05-27T05:46:29;21.92;;;6.25;;
66327;SDS011;53133;52.862;6.602;2023-05-27T05:48:55;20.05;;;6.43;;
66327;SDS011;53133;52.862;6.602;2023-05-27T05:51:21;20.52;;;6.93;;
66327;SDS011;53133;52.862;6.602;2023-05-27T05:53:46;22.40;;;6.53;;
66327;SDS011;53133;52.862;6.602;2023-05-27T05:56:12;19.45;;;6.43;;
66327;SDS011;53133;52.862;6.602;2023-05-27T05:58:37;23.00;;;6.30;;
66327;SDS011;53133;52.862;6.602;2023-05-27T06:01:03;22.58;;;6.80;;
66327;SDS011;53133;52.862;6.602;2023-05-27T06:03:29;17.80;;;6.13;;
66327;SDS011;53133;52.862;6.602;2023-05-27T06:05:55;16.30;;;6.07;;
66327;SDS011;53133;52.862;6.602;2023-05-27T06:08:26;21.95;;;6.18;;
66327;SDS011;53133;52.862;6.602;2023-05-27T06:10:51;23.23;;;6.85;;
66327;SDS011;53133;52.862;6.602;2023-05-27T06:13:17;18.92;;;6.35;;
66327;SDS011;53133;52.862;6.602;2023-05-27T06:15:42;21.40;;;6.28;;
66327;SDS011;53133;52.862;6.602;2023-05-27T06:18:08;25.58;;;6.90;;
66327;SDS011;53133;52.862;6.602;2023-05-27T06:20:33;19.58;;;6.00;;
66327;SDS011;53133;52.862;6.602;2023-05-27T06:22:59;22.45;;;6.55;;
66327;SDS011;53133;52.862;6.602;2023-05-27T06:25:30;23.30;;;6.28;;
66327;SDS011;53133;52.862;6.602;2023-05-27T06:27:56;23.92;;;6.32;;
66327;SDS011;53133;52.862;6.602;2023-05-27T06:30:21;21.42;;;6.82;;
66327;SDS011;53133;52.862;6.602;2023-05-27T06:32:47;18.75;;;6.15;;
66327;SDS011;53133;52.862;6.602;2023-05-27T06:35:13;20.30;;;5.95;;
66327;SDS011;53133;52.862;6.602;2023-05-27T06:37:38;21.83;;;5.90;;
66327;SDS011;53133;52.862;6.602;2023-05-27T06:40:04;20.35;;;6.32;;
66327;SDS011;53133;52.862;6.602;2023-05-27T06:42:30;23.63;;;5.88;;
66327;SDS011;53133;52.862;6.602;2023-05-27T06:44:56;19.38;;;5.55;;
66327;SDS011;53133;52.862;6.602;2023-05-27T06:47:21;23.08;;;6.07;;
66327;SDS011;53133;52.862;6.602;2023-05-27T06:49:47;23.45;;;5.90;;
66327;SDS011;53133;52.862;6.602;2023-05-27T06:52:12;18.85;;;5.45;;
66327;SDS011;53133;52.862;6.602;2023-05-27T06:54:38;24.48;;;5.65;;
66327;SDS011;53133;52.862;6.602;2023-05-27T06:57:03;17.58;;;5.75;;
66327;SDS011;53133;52.862;6.602;2023-05-27T06:59:29;17.15;;;5.60;;
66327;SDS011;53133;52.862;6.602;2023-05-27T07:01:55;22.58;;;6.50;;
66327;SDS011;53133;52.862;6.602;2023-05-27T07:04:24;14.82;;;5.15;;
66327;SDS011;53133;52.862;6.602;2023-05-27T07:06:52;20.70;;;6.38;;
66327;SDS011;53133;52.862;6.602;2023-05-27T07:09:21;18.63;;;5.45;;
66327;SDS011;53133;52.862;6.602;2023-05-27T07:11:46;22.70;;;5.60;;
66327;SDS011;53133;52.862;6.602;2023-05-27T07:14:12;19.30;;;5.93;;
66327;SDS011;53133;52.862;6.602;2023-05-27T07:16:38;19.38;;;5.25;;
66327;SDS011;53133;52.862;6.602;2023-05-27T07:19:03;16.20;;;5.57;;
66327;SDS011;53133;52.862;6.602;2023-05-27T07:21:29;17.58;;;5.10;;
66327;SDS011;53133;52.862;6.602;2023-05-27T07:23:54;18.00;;;5.53;;
66327;SDS011;53133;52.862;6.602;2023-05-27T07:26:23;15.18;;;5.80;;
66327;SDS011;53133;52.862;6.602;2023-05-27T07:28:50;19.58;;;6.43;;
66327;SDS011;53133;52.862;6.602;2023-05-27T07:31:17;17.17;;;5.43;;
66327;SDS011;53133;52.862;6.602;2023-05-27T07:33:42;18.38;;;6.00;;
66327;SDS011;53133;52.862;6.602;2023-05-27T07:36:08;18.30;;;5.85;;
66327;SDS011;53133;52.862;6.602;2023-05-27T07:38:35;17.95;;;5.00;;
66327;SDS011;53133;52.862;6.602;2023-05-27T07:41:00;19.70;;;5.55;;
66327;SDS011;53133;52.862;6.602;2023-05-27T07:43:26;21.98;;;5.97;;
66327;SDS011;53133;52.862;6.602;2023-05-27T07:45:51;21.23;;;6.03;;
66327;SDS011;53133;52.862;6.602;2023-05-27T07:48:17;18.60;;;5.97;;
66327;SDS011;53133;52.862;6.602;2023-05-27T07:50:43;16.75;;;6.28;;
66327;SDS011;53133;52.862;6.602;2023-05-27T07:53:09;23.15;;;5.78;;
66327;SDS011;53133;52.862;6.602;2023-05-27T07:55:34;19.05;;;5.80;;
66327;SDS011;53133;52.862;6.602;2023-05-27T07:58:03;19.77;;;6.63;;
66327;SDS011;53133;52.862;6.602;2023-05-27T08:00:28;21.80;;;6.35;;
66327;SDS011;53133;52.862;6.602;2023-05-27T08:02:55;23.10;;;6.05;;
66327;SDS011;53133;52.862;6.602;2023-05-27T08:05:20;18.80;;;6.55;;
66327;SDS011;53133;52.862;6.602;2023-05-27T08:07:46;16.15;;;6.53;;
66327;SDS011;53133;52.862;6.602;2023-05-27T08:10:12;19.25;;;5.93;;
66327;SDS011;53133;52.862;6.602;2023-05-27T08:12:40;17.23;;;6.13;;
66327;SDS011;53133;52.862;6.602;2023-05-27T08:15:06;23.70;;;7.03;;
66327;SDS011;53133;52.862;6.602;2023-05-27T08:17:35;19.60;;;5.45;;
66327;SDS011;53133;52.862;6.602;2023-05-27T08:20:01;19.20;;;6.70;;
66327;SDS011;53133;52.862;6.602;2023-05-27T08:22:26;22.85;;;6.78;;
66327;SDS011;53133;52.862;6.602;2023-05-27T08:24:52;17.85;;;6.38;;
66327;SDS011;53133;52.862;6.602;2023-05-27T08:27:19;19.88;;;6.40;;
66327;SDS011;53133;52.862;6.602;2023-05-27T08:29:45;19.83;;;6.32;;
66327;SDS011;53133;52.862;6.602;2023-05-27T08:32:11;19.77;;;6.45;;
66327;SDS011;53133;52.862;6.602;2023-05-27T08:34:37;22.50;;;6.80;;
66327;SDS011;53133;52.862;6.602;2023-05-27T08:37:06;15.55;;;6.22;;
66327;SDS011;53133;52.862;6.602;2023-05-27T08:39:31;20.80;;;6.53;;
66327;SDS011;53133;52.862;6.602;2023-05-27T08:41:57;17.92;;;6.22;;
66327;SDS011;53133;52.862;6.602;2023-05-27T08:44:25;17.92;;;6.10;;
66327;SDS011;53133;52.862;6.602;2023-05-27T08:46:50;18.65;;;5.93;;
66327;SDS011;53133;52.862;6.602;2023-05-27T08:49:16;16.23;;;5.63;;
66327;SDS011;53133;52.862;6.602;2023-05-27T08:51:42;18.63;;;6.05;;
66327;SDS011;53133;52.862;6.602;2023-05-27T08:54:10;21.05;;;7.38;;
66327;SDS011;53133;52.862;6.602;2023-05-27T08:56:37;19.40;;;6.30;;
66327;SDS011;53133;52.862;6.602;2023-05-27T08:59:05;20.38;;;6.15;;
66327;SDS011;53133;52.862;6.602;2023-05-27T09:01:31;20.00;;;6.85;;
66327;SDS011;53133;52.862;6.602;2023-05-27T09:03:58;20.35;;;6.47;;
66327;SDS011;53133;52.862;6.602;2023-05-27T09:06:24;17.65;;;6.75;;
66327;SDS011;53133;52.862;6.602;2023-05-27T09:08:49;17.45;;;5.80;;
66327;SDS011;53133;52.862;6.602;2023-05-27T09:11:24;23.70;;;6.82;;
66327;SDS011;53133;52.862;6.602;2023-05-27T09:13:53;22.20;;;6.70;;
66327;SDS011;53133;52.862;6.602;2023-05-27T09:16:22;15.07;;;6.68;;
66327;SDS011;53133;52.862;6.602;2023-05-27T09:18:48;20.73;;;6.97;;
66327;SDS011;53133;52.862;6.602;2023-05-27T09:21:15;19.73;;;6.72;;
66327;SDS011;53133;52.862;6.602;2023-05-27T09:23:43;17.90;;;6.57;;
66327;SDS011;53133;52.862;6.602;2023-05-27T09:26:10;20.83;;;6.88;;
66327;SDS011;53133;52.862;6.602;2023-05-27T09:28:36;18.45;;;6.50;;
66327;SDS011;53133;52.862;6.602;2023-05-27T09:31:03;18.17;;;6.50;;
66327;SDS011;53133;52.862;6.602;2023-05-27T09:33:31;18.25;;;6.30;;
66327;SDS011;53133;52.862;6.602;2023-05-27T09:35:59;18.30;;;6.72;;
66327;SDS011;53133;52.862;6.602;2023-05-27T09:38:32;17.67;;;6.10;;
66327;SDS011;53133;52.862;6.602;2023-05-27T09:40:59;22.02;;;6.45;;
66327;SDS011;53133;52.862;6.602;2023-05-27T09:43:25;14.77;;;6.20;;
66327;SDS011;53133;52.862;6.602;2023-05-27T09:45:52;21.02;;;7.22;;
66327;SDS011;53133;52.862;6.602;2023-05-27T09:48:22;19.15;;;6.63;;
66327;SDS011;53133;52.862;6.602;2023-05-27T09:50:49;18.65;;;6.63;;
66327;SDS011;53133;52.862;6.602;2023-05-27T09:53:16;20.10;;;6.90;;
66327;SDS011;53133;52.862;6.602;2023-05-27T09:55:42;17.48;;;6.70;;
66327;SDS011;53133;52.862;6.602;2023-05-27T09:58:08;18.90;;;6.43;;
66327;SDS011;53133;52.862;6.602;2023-05-27T10:00:35;17.23;;;7.10;;
66327;SDS011;53133;52.862;6.602;2023-05-27T10:03:04;17.05;;;6.60;;
66327;SDS011;53133;52.862;6.602;2023-05-27T10:05:31;18.80;;;6.78;;
66327;SDS011;53133;52.862;6.602;2023-05-27T10:07:59;15.23;;;6.47;;
66327;SDS011;53133;52.862;6.602;2023-05-27T10:10:24;19.38;;;6.85;;
66327;SDS011;53133;52.862;6.602;2023-05-27T10:12:50;15.07;;;6.35;;
66327;SDS011;53133;52.862;6.602;2023-05-27T10:15:26;22.17;;;7.03;;
66327;SDS011;53133;52.862;6.602;2023-05-27T10:20:36;16.42;;;5.88;;
66327;SDS011;53133;52.862;6.602;2023-05-27T10:23:10;19.13;;;7.37;;
66327;SDS011;53133;52.862;6.602;2023-05-27T10:25:53;19.60;;;6.57;;
66327;SDS011;53133;52.862;6.602;2023-05-27T10:28:39;17.60;;;6.60;;
66327;SDS011;53133;52.862;6.602;2023-05-27T10:31:08;18.88;;;6.13;;
66327;SDS011;53133;52.862;6.602;2023-05-27T10:33:36;22.08;;;7.35;;
66327;SDS011;53133;52.862;6.602;2023-05-27T10:38:55;14.88;;;6.50;;
66327;SDS011;53133;52.862;6.602;2023-05-27T10:41:21;18.88;;;7.15;;
66327;SDS011;53133;52.862;6.602;2023-05-27T10:43:57;15.07;;;6.90;;
66327;SDS011;53133;52.862;6.602;2023-05-27T10:46:37;19.67;;;6.80;;
66327;SDS011;53133;52.862;6.602;2023-05-27T10:49:13;15.40;;;6.28;;
66327;SDS011;53133;52.862;6.602;2023-05-27T10:51:40;18.92;;;7.07;;
66327;SDS011;53133;52.862;6.602;2023-05-27T10:54:07;17.25;;;6.50;;
66327;SDS011;53133;52.862;6.602;2023-05-27T10:56:33;15.45;;;5.90;;
66327;SDS011;53133;52.862;6.602;2023-05-27T10:59:00;13.05;;;5.68;;
66327;SDS011;53133;52.862;6.602;2023-05-27T11:01:31;19.88;;;6.47;;
66327;SDS011;53133;52.862;6.602;2023-05-27T11:03:58;13.55;;;5.95;;
66327;SDS011;53133;52.862;6.602;2023-05-27T11:06:23;15.77;;;6.10;;
66327;SDS011;53133;52.862;6.602;2023-05-27T11:08:49;16.20;;;6.20;;
66327;SDS011;53133;52.862;6.602;2023-05-27T11:11:18;15.02;;;5.80;;
66327;SDS011;53133;52.862;6.602;2023-05-27T11:13:44;19.52;;;6.32;;
66327;SDS011;53133;52.862;6.602;2023-05-27T11:16:11;19.02;;;6.38;;
66327;SDS011;53133;52.862;6.602;2023-05-27T11:18:39;16.30;;;6.47;;
66327;SDS011;53133;52.862;6.602;2023-05-27T11:21:06;15.60;;;6.20;;
66327;SDS011;53133;52.862;6.602;2023-05-27T11:23:40;11.07;;;5.38;;
66327;SDS011;53133;52.862;6.602;2023-05-27T11:26:15;17.05;;;5.57;;
66327;SDS011;53133;52.862;6.602;2023-05-27T11:28:50;15.18;;;5.57;;
66327;SDS011;53133;52.862;6.602;2023-05-27T11:31:19;14.80;;;5.95;;
66327;SDS011;53133;52.862;6.602;2023-05-27T11:33:46;14.23;;;5.70;;
66327;SDS011;53133;52.862;6.602;2023-05-27T11:36:15;15.10;;;6.32;;
66327;SDS011;53133;52.862;6.602;2023-05-27T11:41:21;14.43;;;6.13;;
66327;SDS011;53133;52.862;6.602;2023-05-27T11:43:52;18.08;;;5.88;;
66327;SDS011;53133;52.862;6.602;2023-05-27T11:46:22;16.48;;;5.70;;
66327;SDS011;53133;52.862;6.602;2023-05-27T11:48:48;16.30;;;5.50;;
66327;SDS011;53133;52.862;6.602;2023-05-27T11:51:14;14.32;;;5.82;;
66327;SDS011;53133;52.862;6.602;2023-05-27T11:53:43;14.23;;;5.93;;
66327;SDS011;53133;52.862;6.602;2023-05-27T11:56:13;18.80;;;6.13;;
66327;SDS011;53133;52.862;6.602;2023-05-27T11:58:40;16.67;;;5.80;;
66327;SDS011;53133;52.862;6.602;2023-05-27T12:01:06;16.08;;;5.90;;
66327;SDS011;53133;52.862;6.602;2023-05-27T12:03:35;17.02;;;6.32;;
66327;SDS011;53133;52.862;6.602;2023-05-27T12:08:29;16.42;;;5.90;;
66327;SDS011;53133;52.862;6.602;2023-05-27T12:10:54;17.83;;;5.60;;
66327;SDS011;53133;52.862;6.602;2023-05-27T12:13:20;15.63;;;5.40;;
66327;SDS011;53133;52.862;6.602;2023-05-27T12:15:47;17.95;;;6.30;;
66327;SDS011;53133;52.862;6.602;2023-05-27T12:18:13;17.40;;;5.82;;
66327;SDS011;53133;52.862;6.602;2023-05-27T12:20:38;16.48;;;6.32;;
66327;SDS011;53133;52.862;6.602;2023-05-27T12:23:04;16.38;;;6.28;;
66327;SDS011;53133;52.862;6.602;2023-05-27T12:25:30;14.93;;;5.30;;
66327;SDS011;53133;52.862;6.602;2023-05-27T12:27:56;13.98;;;5.53;;
66327;SDS011;53133;52.862;6.602;2023-05-27T12:30:22;18.08;;;6.15;;
66327;SDS011;53133;52.862;6.602;2023-05-27T12:32:47;16.67;;;5.80;;
66327;SDS011;53133;52.862;6.602;2023-05-27T12:35:13;16.13;;;5.80;;
66327;SDS011;53133;52.862;6.602;2023-05-27T12:37:39;19.08;;;5.95;;
66327;SDS011;53133;52.862;6.602;2023-05-27T12:40:05;16.02;;;5.82;;
66327;SDS011;53133;52.862;6.602;2023-05-27T12:42:34;15.95;;;5.75;;
66327;SDS011;53133;52.862;6.602;2023-05-27T12:45:00;11.48;;;5.70;;
66327;SDS011;53133;52.862;6.602;2023-05-27T12:47:29;15.20;;;5.95;;
66327;SDS011;53133;52.862;6.602;2023-05-27T12:49:57;15.60;;;5.72;;
66327;SDS011;53133;52.862;6.602;2023-05-27T12:52:23;17.92;;;5.93;;
66327;SDS011;53133;52.862;6.602;2023-05-27T12:54:48;13.25;;;5.55;;
66327;SDS011;53133;52.862;6.602;2023-05-27T12:57:14;16.20;;;5.30;;
66327;SDS011;53133;52.862;6.602;2023-05-27T12:59:40;16.52;;;5.63;;
66327;SDS011;53133;52.862;6.602;2023-05-27T13:02:06;20.25;;;6.28;;
66327;SDS011;53133;52.862;6.602;2023-05-27T13:04:32;12.68;;;5.47;;
66327;SDS011;53133;52.862;6.602;2023-05-27T13:06:58;13.20;;;5.35;;
66327;SDS011;53133;52.862;6.602;2023-05-27T13:09:24;14.23;;;5.30;;
66327;SDS011;53133;52.862;6.602;2023-05-27T13:11:49;13.85;;;5.50;;
66327;SDS011;53133;52.862;6.602;2023-05-27T13:14:15;15.68;;;6.50;;
66327;SDS011;53133;52.862;6.602;2023-05-27T13:16:40;14.75;;;5.47;;
66327;SDS011;53133;52.862;6.602;2023-05-27T13:19:06;14.90;;;5.72;;
66327;SDS011;53133;52.862;6.602;2023-05-27T13:21:31;15.13;;;5.32;;
66327;SDS011;53133;52.862;6.602;2023-05-27T13:23:57;17.48;;;5.55;;
66327;SDS011;53133;52.862;6.602;2023-05-27T13:26:26;13.55;;;5.80;;
66327;SDS011;53133;52.862;6.602;2023-05-27T13:28:53;18.08;;;5.95;;
66327;SDS011;53133;52.862;6.602;2023-05-27T13:31:19;14.63;;;5.28;;
66327;SDS011;53133;52.862;6.602;2023-05-27T13:33:45;16.33;;;6.10;;
66327;SDS011;53133;52.862;6.602;2023-05-27T13:36:11;17.13;;;5.53;;
66327;SDS011;53133;52.862;6.602;2023-05-27T13:38:38;16.90;;;5.75;;
66327;SDS011;53133;52.862;6.602;2023-05-27T13:41:03;12.40;;;5.43;;
66327;SDS011;53133;52.862;6.602;2023-05-27T13:43:29;14.45;;;5.10;;
66327;SDS011;53133;52.862;6.602;2023-05-27T13:45:55;12.85;;;5.00;;
66327;SDS011;53133;52.862;6.602;2023-05-27T13:48:23;12.95;;;5.75;;
66327;SDS011;53133;52.862;6.602;2023-05-27T13:50:49;18.75;;;5.50;;
66327;SDS011;53133;52.862;6.602;2023-05-27T13:53:15;15.20;;;5.75;;
66327;SDS011;53133;52.862;6.602;2023-05-27T13:55:40;11.98;;;5.53;;
66327;SDS011;53133;52.862;6.602;2023-05-27T13:58:08;15.88;;;5.20;;
66327;SDS011;53133;52.862;6.602;2023-05-27T14:00:33;16.30;;;5.50;;
66327;SDS011;53133;52.862;6.602;2023-05-27T14:02:59;11.73;;;5.47;;
66327;SDS011;53133;52.862;6.602;2023-05-27T14:05:25;16.05;;;5.68;;
66327;SDS011;53133;52.862;6.602;2023-05-27T14:07:54;11.32;;;4.82;;
66327;SDS011;53133;52.862;6.602;2023-05-27T14:10:22;12.70;;;5.30;;
66327;SDS011;53133;52.862;6.602;2023-05-27T14:12:48;11.52;;;4.97;;
66327;SDS011;53133;52.862;6.602;2023-05-27T14:15:13;12.57;;;5.07;;
66327;SDS011;53133;52.862;6.602;2023-05-27T14:17:39;13.20;;;5.43;;
66327;SDS011;53133;52.862;6.602;2023-05-27T14:20:05;15.63;;;5.00;;
66327;SDS011;53133;52.862;6.602;2023-05-27T14:22:35;15.35;;;5.30;;
66327;SDS011;53133;52.862;6.602;2023-05-27T14:25:02;15.98;;;5.20;;
66327;SDS011;53133;52.862;6.602;2023-05-27T14:27:28;12.75;;;5.07;;
66327;SDS011;53133;52.862;6.602;2023-05-27T14:29:54;14.18;;;5.22;;
66327;SDS011;53133;52.862;6.602;2023-05-27T14:32:19;11.80;;;4.75;;
66327;SDS011;53133;52.862;6.602;2023-05-27T14:34:47;11.40;;;5.63;;
66327;SDS011;53133;52.862;6.602;2023-05-27T14:37:16;13.93;;;5.20;;
66327;SDS011;53133;52.862;6.602;2023-05-27T14:39:41;16.42;;;5.78;;
66327;SDS011;53133;52.862;6.602;2023-05-27T14:42:07;13.10;;;4.70;;
66327;SDS011;53133;52.862;6.602;2023-05-27T14:44:33;10.57;;;4.93;;
66327;SDS011;53133;52.862;6.602;2023-05-27T14:47:01;10.85;;;4.97;;
66327;SDS011;53133;52.862;6.602;2023-05-27T14:49:26;12.68;;;4.70;;
66327;SDS011;53133;52.862;6.602;2023-05-27T14:51:52;13.23;;;5.15;;
66327;SDS011;53133;52.862;6.602;2023-05-27T14:54:17;11.85;;;4.72;;